createdAt,value
2022-08-20T00:00:06.306Z,44.03
2022-08-20T00:00:38.287Z,44.28
2022-08-20T00:01:09.731Z,44.38
2022-08-20T00:01:41.112Z,44.72
2022-08-20T00:02:12.720Z,44.52
2022-08-20T00:02:49.183Z,44.46
2022-08-20T00:03:23.310Z,44.33
2022-08-20T00:03:57.085Z,44.44
2022-08-20T00:04:33.068Z,44.60
2022-08-20T00:05:04.570Z,44.76
2022-08-20T00:05:40.116Z,45.64
2022-08-20T00:06:12.996Z,45.23
2022-08-20T00:06:44.334Z,45.36
2022-08-20T00:07:15.712Z,44.83
2022-08-20T00:07:47.093Z,45.33
2022-08-20T00:08:18.713Z,45.00
2022-08-20T00:08:50.108Z,45.43
2022-08-20T00:09:21.520Z,45.29
2022-08-20T00:09:52.853Z,45.45
2022-08-20T00:10:24.376Z,45.37
2022-08-20T00:10:55.921Z,45.23
2022-08-20T00:11:27.452Z,45.63
2022-08-20T00:12:00.454Z,45.48
2022-08-20T00:12:31.877Z,45.67
2022-08-20T00:13:03.829Z,45.63
2022-08-20T00:13:37.815Z,45.23
2022-08-20T00:14:09.398Z,45.21
2022-08-20T00:14:40.903Z,45.46
2022-08-20T00:15:14.747Z,45.77
2022-08-20T00:15:46.427Z,45.57
2022-08-20T00:16:18.249Z,45.40
2022-08-20T00:16:49.631Z,46.08
2022-08-20T00:17:21.003Z,46.10
2022-08-20T00:17:52.392Z,46.10
2022-08-20T00:18:23.772Z,45.44
2022-08-20T00:18:55.222Z,45.70
2022-08-20T00:19:27.094Z,47.07
2022-08-20T00:19:58.585Z,46.21
2022-08-20T00:20:31.241Z,45.85
2022-08-20T00:21:03.588Z,46.05
2022-08-20T00:21:35.173Z,46.55
2022-08-20T00:22:06.602Z,46.37
2022-08-20T00:22:38.088Z,46.53
2022-08-20T00:23:10.574Z,46.35
2022-08-20T00:23:43.138Z,46.07
2022-08-20T00:24:14.529Z,46.98
2022-08-20T00:24:45.928Z,46.66
2022-08-20T00:25:17.346Z,46.43
2022-08-20T00:25:48.709Z,45.92
2022-08-20T00:26:20.232Z,46.66
2022-08-20T00:26:52.797Z,46.43
2022-08-20T00:27:24.326Z,46.73
2022-08-20T00:27:56.306Z,46.76
2022-08-20T00:28:27.771Z,46.72
2022-08-20T00:28:59.148Z,46.93
2022-08-20T00:29:30.515Z,46.61
2022-08-20T00:30:02.200Z,47.25
2022-08-20T00:30:33.947Z,47.50
2022-08-20T00:31:06.004Z,46.92
2022-08-20T00:31:37.532Z,47.29
2022-08-20T00:32:09.540Z,46.91
2022-08-20T00:32:47.880Z,47.35
2022-08-20T00:33:19.990Z,47.79
2022-08-20T00:33:51.450Z,47.52
2022-08-20T00:34:22.851Z,47.91
2022-08-20T00:34:54.205Z,47.31
2022-08-20T00:35:26.855Z,47.51
2022-08-20T00:35:58.209Z,47.28
2022-08-20T00:36:32.609Z,48.15
2022-08-20T00:37:04.528Z,47.55
2022-08-20T00:37:35.953Z,48.00
2022-08-20T00:38:07.279Z,48.30
2022-08-20T00:38:38.969Z,47.77
2022-08-20T00:39:10.363Z,47.78
2022-08-20T00:39:41.818Z,47.93
2022-08-20T00:40:22.876Z,48.00
2022-08-20T00:40:55.484Z,47.86
2022-08-20T00:41:27.024Z,47.95
2022-08-20T00:41:58.455Z,48.03
2022-08-20T00:42:29.812Z,47.87
2022-08-20T00:43:01.298Z,47.81
2022-08-20T00:43:34.397Z,48.39
2022-08-20T00:44:13.084Z,48.06
2022-08-20T00:44:45.699Z,48.22
2022-08-20T00:45:17.192Z,48.47
2022-08-20T00:45:48.580Z,48.36
2022-08-20T00:46:28.120Z,48.16
2022-08-20T00:47:03.574Z,48.35
2022-08-20T00:47:34.970Z,48.32
2022-08-20T00:48:06.407Z,48.41
2022-08-20T00:48:38.393Z,48.19
2022-08-20T00:49:11.786Z,48.74
2022-08-20T00:49:43.156Z,48.63
2022-08-20T00:50:15.775Z,48.85
2022-08-20T00:50:48.732Z,48.24
2022-08-20T00:51:29.989Z,48.64
2022-08-20T00:52:14.627Z,48.64
2022-08-20T00:52:49.783Z,48.40
2022-08-20T00:53:21.602Z,48.18
2022-08-20T00:53:56.270Z,48.80
2022-08-20T00:54:46.826Z,49.15
2022-08-20T00:55:18.313Z,48.82
2022-08-20T00:55:49.755Z,49.06
2022-08-20T00:56:21.170Z,48.68
2022-08-20T00:56:54.846Z,48.72
2022-08-20T00:57:29.150Z,49.05
2022-08-20T00:58:20.479Z,48.89
2022-08-20T00:58:51.835Z,48.60
2022-08-20T00:59:28.676Z,48.80
2022-08-20T01:00:00.165Z,48.97
2022-08-20T01:00:32.707Z,48.86
2022-08-20T01:01:04.201Z,49.18
2022-08-20T01:01:54.772Z,49.18
2022-08-20T01:02:27.292Z,49.10
2022-08-20T01:02:58.762Z,49.02
2022-08-20T01:03:30.140Z,49.22
2022-08-20T01:04:01.547Z,49.63
2022-08-20T01:04:33.480Z,49.26
2022-08-20T01:05:05.460Z,49.24
2022-08-20T01:05:37.679Z,49.71
2022-08-20T01:06:09.095Z,49.80
2022-08-20T01:06:40.493Z,49.82
2022-08-20T01:07:11.821Z,49.92
2022-08-20T01:07:43.191Z,49.88
2022-08-20T01:08:15.043Z,49.51
2022-08-20T01:08:46.552Z,49.71
2022-08-20T01:09:17.898Z,49.54
2022-08-20T01:10:13.719Z,49.96
2022-08-20T01:10:50.699Z,49.59
2022-08-20T01:11:22.064Z,49.77
2022-08-20T01:11:53.864Z,49.21
2022-08-20T01:12:25.321Z,49.53
2022-08-20T01:12:59.398Z,49.48
2022-08-20T01:13:31.053Z,49.34
2022-08-20T01:14:03.389Z,49.79
2022-08-20T01:14:34.907Z,49.54
2022-08-20T01:15:06.542Z,49.69
2022-08-20T01:15:42.944Z,49.86
2022-08-20T01:16:25.071Z,50.06
2022-08-20T01:17:00.426Z,50.13
2022-08-20T01:17:32.842Z,49.34
2022-08-20T01:18:04.325Z,49.45
2022-08-20T01:18:35.660Z,49.88
2022-08-20T01:19:07.243Z,49.34
2022-08-20T01:20:04.407Z,50.26
2022-08-20T01:20:39.818Z,49.47
2022-08-20T01:21:11.207Z,50.08
2022-08-20T01:21:45.794Z,49.90
2022-08-20T01:22:28.877Z,50.21
2022-08-20T01:23:15.578Z,50.23
2022-08-20T01:24:05.499Z,49.66
2022-08-20T01:24:37.084Z,49.77
2022-08-20T01:25:12.740Z,49.42
2022-08-20T01:25:48.788Z,50.28
2022-08-20T01:26:24.764Z,49.60
2022-08-20T01:26:56.110Z,49.96
2022-08-20T01:27:27.513Z,50.18
2022-08-20T01:28:02.360Z,49.27
2022-08-20T01:28:35.360Z,50.13
2022-08-20T01:29:06.785Z,49.93
2022-08-20T01:29:38.627Z,50.39
2022-08-20T01:30:10.165Z,50.51
2022-08-20T01:30:41.543Z,49.76
2022-08-20T01:31:19.957Z,50.50
2022-08-20T01:31:51.534Z,50.05
2022-08-20T01:32:22.870Z,49.93
2022-08-20T01:32:54.368Z,49.88
2022-08-20T01:33:25.806Z,50.20
2022-08-20T01:33:57.766Z,50.32
2022-08-20T01:34:29.289Z,50.59
2022-08-20T01:35:00.672Z,50.31
2022-08-20T01:35:34.915Z,49.90
2022-08-20T01:36:06.482Z,50.21
2022-08-20T01:36:46.140Z,50.59
2022-08-20T01:37:17.935Z,50.90
2022-08-20T01:37:49.432Z,50.34
2022-08-20T01:38:20.857Z,50.33
2022-08-20T01:38:54.225Z,50.65
2022-08-20T01:39:27.319Z,50.91
2022-08-20T01:39:58.750Z,50.67
2022-08-20T01:40:48.832Z,51.03
2022-08-20T01:41:28.445Z,49.97
2022-08-20T01:42:20.683Z,50.34
2022-08-20T01:42:59.003Z,50.62
2022-08-20T01:43:31.278Z,50.70
2022-08-20T01:44:09.199Z,50.67
2022-08-20T01:44:48.144Z,50.05
2022-08-20T01:45:20.753Z,50.65
2022-08-20T01:45:58.217Z,50.34
2022-08-20T01:46:31.751Z,50.25
2022-08-20T01:47:27.331Z,50.21
2022-08-20T01:47:59.359Z,50.54
2022-08-20T01:48:30.953Z,50.06
2022-08-20T01:49:07.041Z,50.11
2022-08-20T01:49:46.201Z,49.96
2022-08-20T01:50:17.923Z,50.48
2022-08-20T01:50:53.888Z,50.10
2022-08-20T01:51:27.100Z,50.35
2022-08-20T01:51:59.437Z,50.01
2022-08-20T01:52:38.988Z,49.83
2022-08-20T01:53:21.521Z,49.99
2022-08-20T01:53:53.341Z,49.84
2022-08-20T01:54:24.815Z,50.10
2022-08-20T01:54:56.392Z,50.29
2022-08-20T01:55:28.132Z,49.71
2022-08-20T01:56:00.557Z,49.82
2022-08-20T01:56:32.005Z,50.28
2022-08-20T01:57:04.772Z,49.93
2022-08-20T01:57:36.522Z,49.89
2022-08-20T01:58:07.882Z,50.32
2022-08-20T01:58:39.587Z,49.92
2022-08-20T01:59:10.927Z,50.30
2022-08-20T01:59:42.397Z,50.38
2022-08-20T02:00:20.037Z,50.02
2022-08-20T02:00:51.770Z,50.03
2022-08-20T02:01:24.613Z,50.12
2022-08-20T02:01:56.127Z,50.09
2022-08-20T02:02:27.675Z,49.75
2022-08-20T02:02:59.059Z,50.22
2022-08-20T02:03:34.794Z,50.03
2022-08-20T02:04:09.448Z,50.05
2022-08-20T02:04:46.840Z,49.85
2022-08-20T02:05:18.498Z,49.67
2022-08-20T02:05:49.856Z,49.70
2022-08-20T02:06:21.541Z,49.64
2022-08-20T02:06:56.109Z,49.87
2022-08-20T02:07:28.849Z,49.96
2022-08-20T02:08:00.354Z,50.05
2022-08-20T02:08:31.870Z,49.59
2022-08-20T02:09:03.916Z,49.68
2022-08-20T02:09:36.016Z,50.00
2022-08-20T02:10:08.145Z,49.79
2022-08-20T02:10:39.527Z,49.93
2022-08-20T02:11:10.917Z,50.01
2022-08-20T02:11:42.273Z,49.65
2022-08-20T02:12:13.715Z,49.91
2022-08-20T02:12:45.105Z,49.82
2022-08-20T02:13:16.478Z,49.74
2022-08-20T02:13:47.877Z,50.00
2022-08-20T02:14:19.341Z,50.19
2022-08-20T02:14:51.249Z,49.63
2022-08-20T02:15:34.979Z,49.61
2022-08-20T02:16:08.950Z,49.51
2022-08-20T02:16:41.831Z,49.76
2022-08-20T02:17:13.664Z,49.69
2022-08-20T02:17:45.065Z,50.13
2022-08-20T02:18:16.405Z,49.91
2022-08-20T02:18:48.529Z,49.69
2022-08-20T02:19:22.007Z,50.02
2022-08-20T02:20:12.223Z,49.64
2022-08-20T02:20:43.616Z,49.78
2022-08-20T02:21:15.184Z,49.85
2022-08-20T02:21:51.303Z,49.97
2022-08-20T02:22:31.937Z,50.10
2022-08-20T02:23:03.430Z,49.76
2022-08-20T02:23:34.767Z,49.98
2022-08-20T02:24:06.457Z,49.90
2022-08-20T02:24:40.259Z,49.81
2022-08-20T02:25:11.643Z,49.76
2022-08-20T02:25:43.788Z,49.73
2022-08-20T02:26:15.287Z,49.74
2022-08-20T02:26:47.031Z,50.17
2022-08-20T02:27:18.463Z,50.10
2022-08-20T02:27:50.201Z,49.99
2022-08-20T02:28:21.637Z,49.81
2022-08-20T02:28:53.024Z,50.11
2022-08-20T02:29:24.423Z,49.86
2022-08-20T02:29:55.845Z,49.93
2022-08-20T02:30:31.673Z,49.61
2022-08-20T02:31:03.030Z,50.23
2022-08-20T02:31:35.130Z,50.32
2022-08-20T02:32:32.124Z,50.12
2022-08-20T02:32:58.180Z,49.60
2022-08-20T02:33:29.607Z,49.67
2022-08-20T02:34:22.578Z,49.71
2022-08-20T02:34:52.363Z,49.71
2022-08-20T02:35:23.987Z,50.04
2022-08-20T02:35:55.392Z,49.99
2022-08-20T02:36:26.853Z,49.67
2022-08-20T02:36:58.692Z,50.00
2022-08-20T02:37:30.116Z,50.25
2022-08-20T02:38:01.603Z,49.84
2022-08-20T02:38:32.970Z,50.26
2022-08-20T02:39:07.857Z,49.79
2022-08-20T02:39:39.320Z,50.17
2022-08-20T02:40:12.191Z,50.26
2022-08-20T02:40:43.976Z,49.79
2022-08-20T02:41:15.335Z,50.21
2022-08-20T02:41:46.891Z,49.93
2022-08-20T02:42:18.309Z,50.07
2022-08-20T02:42:49.876Z,50.19
2022-08-20T02:43:21.326Z,49.95
2022-08-20T02:43:52.652Z,50.17
2022-08-20T02:44:24.040Z,49.76
2022-08-20T02:44:55.467Z,50.35
2022-08-20T02:45:26.937Z,50.23
2022-08-20T02:45:58.723Z,50.50
2022-08-20T02:46:30.197Z,50.26
2022-08-20T02:47:02.513Z,50.23
2022-08-20T02:47:33.939Z,50.25
2022-08-20T02:48:05.387Z,50.49
2022-08-20T02:48:36.733Z,50.09
2022-08-20T02:49:08.201Z,50.04
2022-08-20T02:49:39.735Z,50.36
2022-08-20T02:50:11.601Z,50.50
2022-08-20T02:50:43.069Z,50.43
2022-08-20T02:51:14.475Z,50.31
2022-08-20T02:51:45.924Z,50.23
2022-08-20T02:52:17.274Z,50.07
2022-08-20T02:52:51.632Z,50.21
2022-08-20T02:53:24.032Z,49.91
2022-08-20T02:53:55.410Z,50.11
2022-08-20T02:54:26.847Z,50.19
2022-08-20T02:54:58.243Z,50.22
2022-08-20T02:55:29.600Z,50.24
2022-08-20T02:56:00.950Z,49.89
2022-08-20T02:56:32.362Z,50.35
2022-08-20T02:57:03.851Z,50.53
2022-08-20T02:57:35.226Z,50.10
2022-08-20T02:58:06.592Z,50.42
2022-08-20T02:58:38.191Z,50.46
2022-08-20T02:59:09.559Z,50.10
2022-08-20T02:59:43.908Z,50.31
2022-08-20T03:00:16.731Z,50.14
2022-08-20T03:00:48.325Z,50.47
2022-08-20T03:01:19.896Z,50.66
2022-08-20T03:01:59.282Z,50.28
2022-08-20T03:02:32.510Z,50.07
2022-08-20T03:03:03.902Z,49.99
2022-08-20T03:03:35.395Z,50.47
2022-08-20T03:04:06.840Z,50.54
2022-08-20T03:04:38.201Z,50.55
2022-08-20T03:05:09.773Z,50.14
2022-08-20T03:05:41.740Z,50.26
2022-08-20T03:06:13.242Z,50.63
2022-08-20T03:06:44.590Z,50.18
2022-08-20T03:07:16.126Z,50.71
2022-08-20T03:07:48.525Z,50.54
2022-08-20T03:08:19.857Z,50.65
2022-08-20T03:08:51.282Z,50.38
2022-08-20T03:09:22.833Z,50.48
2022-08-20T03:09:54.286Z,50.39
2022-08-20T03:10:30.866Z,50.75
2022-08-20T03:11:02.185Z,50.90
2022-08-20T03:11:33.583Z,50.51
2022-08-20T03:12:07.065Z,50.67
2022-08-20T03:12:38.634Z,50.47
2022-08-20T03:13:10.247Z,50.95
2022-08-20T03:13:41.646Z,50.84
2022-08-20T03:14:13.000Z,50.64
2022-08-20T03:14:44.333Z,50.74
2022-08-20T03:15:17.746Z,50.66
2022-08-20T03:15:57.931Z,50.33
2022-08-20T03:16:29.929Z,50.49
2022-08-20T03:17:01.328Z,50.47
2022-08-20T03:17:32.716Z,50.61
2022-08-20T03:18:04.182Z,50.79
2022-08-20T03:18:37.960Z,50.79
2022-08-20T03:19:09.319Z,50.77
2022-08-20T03:19:40.681Z,50.41
2022-08-20T03:20:12.142Z,50.95
2022-08-20T03:20:43.520Z,50.54
2022-08-20T03:21:17.436Z,50.89
2022-08-20T03:21:48.945Z,50.63
2022-08-20T03:22:20.466Z,50.85
2022-08-20T03:22:52.059Z,50.73
2022-08-20T03:23:23.594Z,50.66
2022-08-20T03:23:54.956Z,50.95
2022-08-20T03:24:26.313Z,50.55
2022-08-20T03:24:57.668Z,50.63
2022-08-20T03:25:29.004Z,50.70
2022-08-20T03:26:00.393Z,51.04
2022-08-20T03:26:31.956Z,50.93
2022-08-20T03:27:03.374Z,51.08
2022-08-20T03:27:36.380Z,51.09
2022-08-20T03:28:08.053Z,50.71
2022-08-20T03:28:39.714Z,50.92
2022-08-20T03:29:11.239Z,51.18
2022-08-20T03:29:42.665Z,50.92
2022-08-20T03:30:14.197Z,50.77
2022-08-20T03:30:45.517Z,50.54
2022-08-20T03:31:16.939Z,50.73
2022-08-20T03:31:48.267Z,50.90
2022-08-20T03:32:19.669Z,51.08
2022-08-20T03:32:51.109Z,50.59
2022-08-20T03:33:22.542Z,51.05
2022-08-20T03:33:53.988Z,50.75
2022-08-20T03:34:25.320Z,50.90
2022-08-20T03:34:56.692Z,50.98
2022-08-20T03:35:28.534Z,50.79
2022-08-20T03:36:00.059Z,50.94
2022-08-20T03:36:31.578Z,51.00
2022-08-20T03:37:02.918Z,51.17
2022-08-20T03:37:34.471Z,51.13
2022-08-20T03:38:07.192Z,50.91
2022-08-20T03:38:39.799Z,50.67
2022-08-20T03:39:11.199Z,50.98
2022-08-20T03:39:42.641Z,50.62
2022-08-20T03:40:15.685Z,50.92
2022-08-20T03:40:47.730Z,50.97
2022-08-20T03:41:19.159Z,50.80
2022-08-20T03:41:50.514Z,51.03
2022-08-20T03:42:21.895Z,50.95
2022-08-20T03:42:53.356Z,51.20
2022-08-20T03:43:24.739Z,51.10
2022-08-20T03:43:56.161Z,51.19
2022-08-20T03:44:27.511Z,50.83
2022-08-20T03:44:59.446Z,51.06
2022-08-20T03:45:30.913Z,51.19
2022-08-20T03:46:02.274Z,50.90
2022-08-20T03:46:34.088Z,51.18
2022-08-20T03:47:05.786Z,51.26
2022-08-20T03:47:37.105Z,50.81
2022-08-20T03:48:08.625Z,50.63
2022-08-20T03:48:39.956Z,50.75
2022-08-20T03:49:11.343Z,51.05
2022-08-20T03:49:42.841Z,50.89
2022-08-20T03:50:14.874Z,50.91
2022-08-20T03:50:54.619Z,50.69
2022-08-20T03:51:25.987Z,50.96
2022-08-20T03:51:57.927Z,50.69
2022-08-20T03:52:29.833Z,50.90
2022-08-20T03:53:01.247Z,50.80
2022-08-20T03:53:32.607Z,50.77
2022-08-20T03:54:04.005Z,51.06
2022-08-20T03:54:35.533Z,50.83
2022-08-20T03:55:07.212Z,51.23
2022-08-20T03:55:38.621Z,50.88
2022-08-20T03:56:09.926Z,50.93
2022-08-20T03:56:41.350Z,51.15
2022-08-20T03:57:13.166Z,51.29
2022-08-20T03:57:48.101Z,50.92
2022-08-20T03:58:19.582Z,51.19
2022-08-20T03:58:50.985Z,51.10
2022-08-20T03:59:22.346Z,50.91
2022-08-20T03:59:58.043Z,51.27
2022-08-20T04:00:34.228Z,51.15
2022-08-20T04:01:05.999Z,51.12
2022-08-20T04:01:45.548Z,50.80
2022-08-20T04:02:17.942Z,51.27
2022-08-20T04:02:49.308Z,50.86
2022-08-20T04:03:20.766Z,50.77
2022-08-20T04:03:55.079Z,51.26
2022-08-20T04:04:26.703Z,51.26
2022-08-20T04:04:58.082Z,51.25
2022-08-20T04:05:29.959Z,50.86
2022-08-20T04:06:01.394Z,51.02
2022-08-20T04:06:32.821Z,51.13
2022-08-20T04:07:14.272Z,50.99
2022-08-20T04:07:45.634Z,50.83
2022-08-20T04:08:21.026Z,50.90
2022-08-20T04:08:52.378Z,50.75
2022-08-20T04:09:23.896Z,51.22
2022-08-20T04:09:55.552Z,51.13
2022-08-20T04:10:26.990Z,51.08
2022-08-20T04:10:58.530Z,50.97
2022-08-20T04:11:29.932Z,51.08
2022-08-20T04:12:01.312Z,51.19
2022-08-20T04:12:32.685Z,50.71
2022-08-20T04:13:06.476Z,50.94
2022-08-20T04:13:43.421Z,50.78
2022-08-20T04:14:18.481Z,50.59
2022-08-20T04:14:51.193Z,51.06
2022-08-20T04:15:22.531Z,50.72
2022-08-20T04:15:54.137Z,50.98
2022-08-20T04:16:25.526Z,51.08
2022-08-20T04:16:56.839Z,50.82
2022-08-20T04:17:28.227Z,50.80
2022-08-20T04:17:59.637Z,50.81
2022-08-20T04:18:31.034Z,50.83
2022-08-20T04:19:02.881Z,50.95
2022-08-20T04:19:34.399Z,50.67
2022-08-20T04:20:06.059Z,51.20
2022-08-20T04:20:38.276Z,51.05
2022-08-20T04:21:09.615Z,50.90
2022-08-20T04:21:41.030Z,50.98
2022-08-20T04:22:12.408Z,50.79
2022-08-20T04:22:43.780Z,50.81
2022-08-20T04:23:30.332Z,50.87
2022-08-20T04:24:02.168Z,51.06
2022-08-20T04:24:34.008Z,51.31
2022-08-20T04:25:05.503Z,50.99
2022-08-20T04:25:39.347Z,50.94
2022-08-20T04:26:14.606Z,50.70
2022-08-20T04:26:46.007Z,50.83
2022-08-20T04:27:17.362Z,50.84
2022-08-20T04:27:48.739Z,50.46
2022-08-20T04:28:20.594Z,50.74
2022-08-20T04:28:51.966Z,50.74
2022-08-20T04:29:23.382Z,50.77
2022-08-20T04:29:56.414Z,50.74
2022-08-20T04:30:27.919Z,50.83
2022-08-20T04:31:00.023Z,50.56
2022-08-20T04:31:31.426Z,50.88
2022-08-20T04:32:05.824Z,50.64
2022-08-20T04:32:38.019Z,50.80
2022-08-20T04:33:09.853Z,50.69
2022-08-20T04:33:41.200Z,50.77
2022-08-20T04:34:12.558Z,50.74
2022-08-20T04:34:43.988Z,51.05
2022-08-20T04:35:18.791Z,50.81
2022-08-20T04:35:50.126Z,51.04
2022-08-20T04:36:21.466Z,50.76
2022-08-20T04:36:52.822Z,50.69
2022-08-20T04:37:24.183Z,50.96
2022-08-20T04:38:02.323Z,51.01
2022-08-20T04:38:50.428Z,50.94
2022-08-20T04:39:22.394Z,50.67
2022-08-20T04:39:53.870Z,50.83
2022-08-20T04:40:25.389Z,50.54
2022-08-20T04:40:56.759Z,50.98
2022-08-20T04:41:28.131Z,50.64
2022-08-20T04:41:59.539Z,50.61
2022-08-20T04:42:30.930Z,50.88
2022-08-20T04:43:02.726Z,51.03
2022-08-20T04:43:34.667Z,51.03
2022-08-20T04:44:06.068Z,50.76
2022-08-20T04:44:37.495Z,50.88
2022-08-20T04:45:09.497Z,51.08
2022-08-20T04:45:40.857Z,51.32
2022-08-20T04:46:12.211Z,51.04
2022-08-20T04:46:43.570Z,51.16
2022-08-20T04:47:18.867Z,51.27
2022-08-20T04:47:56.933Z,51.37
2022-08-20T04:48:28.666Z,51.52
2022-08-20T04:49:00.578Z,51.38
2022-08-20T04:49:32.027Z,51.31
2022-08-20T04:50:03.566Z,51.70
2022-08-20T04:50:35.479Z,51.80
2022-08-20T04:51:07.337Z,51.27
2022-08-20T04:51:39.782Z,51.66
2022-08-20T04:52:11.201Z,51.26
2022-08-20T04:52:42.623Z,51.42
2022-08-20T04:53:14.478Z,51.14
2022-08-20T04:53:51.653Z,51.20
2022-08-20T04:54:23.794Z,51.27
2022-08-20T04:54:55.165Z,51.56
2022-08-20T04:55:26.550Z,51.52
2022-08-20T04:55:58.608Z,51.06
2022-08-20T04:56:31.241Z,51.12
2022-08-20T04:57:02.620Z,51.39
2022-08-20T04:57:33.995Z,51.31
2022-08-20T04:58:05.846Z,51.33
2022-08-20T04:58:38.144Z,51.16
2022-08-20T04:59:09.526Z,51.41
2022-08-20T04:59:40.900Z,51.66
2022-08-20T05:00:14.682Z,51.39
2022-08-20T05:00:49.425Z,51.32
2022-08-20T05:01:20.887Z,51.06
2022-08-20T05:01:52.237Z,51.19
2022-08-20T05:02:23.602Z,51.43
2022-08-20T05:02:54.982Z,51.40
2022-08-20T05:03:26.566Z,51.30
2022-08-20T05:03:57.975Z,51.46
2022-08-20T05:04:29.364Z,51.05
2022-08-20T05:05:00.726Z,51.10
2022-08-20T05:05:32.095Z,51.14
2022-08-20T05:06:03.860Z,51.47
2022-08-20T05:06:35.217Z,51.34
2022-08-20T05:07:06.654Z,51.27
2022-08-20T05:07:38.969Z,51.27
2022-08-20T05:08:19.889Z,51.24
2022-08-20T05:08:52.260Z,51.40
2022-08-20T05:09:23.620Z,51.24
2022-08-20T05:09:54.983Z,51.15
2022-08-20T05:10:26.327Z,51.18
2022-08-20T05:11:16.288Z,51.54
2022-08-20T05:11:49.147Z,51.29
2022-08-20T05:12:20.585Z,51.11
2022-08-20T05:12:56.536Z,51.35
2022-08-20T05:13:28.638Z,51.49
2022-08-20T05:14:00.027Z,51.30
2022-08-20T05:14:31.385Z,51.41
2022-08-20T05:15:03.006Z,51.16
2022-08-20T05:15:34.546Z,51.28
2022-08-20T05:16:06.025Z,51.26
2022-08-20T05:16:38.098Z,51.18
2022-08-20T05:17:09.596Z,51.49
2022-08-20T05:17:41.112Z,51.50
2022-08-20T05:18:12.536Z,51.31
2022-08-20T05:18:43.924Z,51.18
2022-08-20T05:19:15.453Z,51.54
2022-08-20T05:19:46.807Z,51.27
2022-08-20T05:20:18.205Z,51.60
2022-08-20T05:20:49.571Z,51.41
2022-08-20T05:21:20.970Z,51.25
2022-08-20T05:21:52.381Z,51.47
2022-08-20T05:22:23.700Z,51.24
2022-08-20T05:22:55.028Z,51.57
2022-08-20T05:23:26.427Z,51.27
2022-08-20T05:23:57.820Z,51.46
2022-08-20T05:24:29.401Z,51.10
2022-08-20T05:25:00.956Z,51.55
2022-08-20T05:25:32.294Z,51.34
2022-08-20T05:26:03.659Z,51.16
2022-08-20T05:26:35.370Z,51.46
2022-08-20T05:27:06.707Z,51.63
2022-08-20T05:27:38.054Z,51.32
2022-08-20T05:28:16.879Z,51.70
2022-08-20T05:28:57.737Z,51.16
2022-08-20T05:29:30.641Z,51.22
2022-08-20T05:30:04.883Z,51.15
2022-08-20T05:30:36.867Z,51.34
2022-08-20T05:31:08.730Z,51.45
2022-08-20T05:31:40.057Z,51.38
2022-08-20T05:32:11.391Z,50.97
2022-08-20T05:32:44.651Z,51.64
2022-08-20T05:33:16.589Z,51.30
2022-08-20T05:33:47.966Z,51.30
2022-08-20T05:34:19.313Z,51.52
2022-08-20T05:34:50.648Z,51.44
2022-08-20T05:35:22.010Z,51.24
2022-08-20T05:35:53.377Z,51.53
2022-08-20T05:36:24.719Z,51.61
2022-08-20T05:36:56.090Z,51.58
2022-08-20T05:37:27.696Z,51.41
2022-08-20T05:38:03.571Z,51.31
2022-08-20T05:38:35.557Z,51.38
2022-08-20T05:39:07.005Z,51.13
2022-08-20T05:39:38.624Z,51.10
2022-08-20T05:40:10.953Z,51.58
2022-08-20T05:40:42.370Z,51.30
2022-08-20T05:41:13.754Z,51.73
2022-08-20T05:41:59.888Z,51.47
2022-08-20T05:42:31.290Z,51.33
2022-08-20T05:43:02.709Z,51.45
2022-08-20T05:43:34.304Z,51.18
2022-08-20T05:44:06.246Z,51.16
2022-08-20T05:44:38.037Z,51.75
2022-08-20T05:45:11.271Z,51.41
2022-08-20T05:45:42.898Z,51.32
2022-08-20T05:46:14.236Z,51.17
2022-08-20T05:46:45.985Z,51.54
2022-08-20T05:47:17.377Z,51.50
2022-08-20T05:47:53.399Z,51.39
2022-08-20T05:48:28.093Z,51.36
2022-08-20T05:49:00.135Z,51.53
2022-08-20T05:49:31.928Z,51.24
2022-08-20T05:50:04.366Z,51.18
2022-08-20T05:50:35.783Z,51.36
2022-08-20T05:51:07.155Z,51.24
2022-08-20T05:51:38.509Z,51.27
2022-08-20T05:52:09.882Z,51.47
2022-08-20T05:52:41.335Z,51.60
2022-08-20T05:53:12.688Z,51.26
2022-08-20T05:53:44.038Z,51.32
2022-08-20T05:54:15.471Z,51.65
2022-08-20T05:54:46.865Z,51.62
2022-08-20T05:55:18.255Z,51.45
2022-08-20T05:55:49.599Z,51.59
2022-08-20T05:56:21.642Z,51.60
2022-08-20T05:56:58.372Z,51.60
2022-08-20T05:57:29.731Z,51.26
2022-08-20T05:58:01.473Z,51.42
2022-08-20T05:58:32.867Z,51.72
2022-08-20T05:59:04.457Z,51.31
2022-08-20T05:59:35.858Z,51.48
2022-08-20T06:00:08.421Z,51.46
2022-08-20T06:00:39.743Z,51.13
2022-08-20T06:01:11.169Z,51.63
2022-08-20T06:01:42.688Z,51.69
2022-08-20T06:02:14.154Z,51.50
2022-08-20T06:02:45.530Z,51.16
2022-08-20T06:03:16.882Z,51.51
2022-08-20T06:03:48.299Z,51.47
2022-08-20T06:04:19.692Z,51.26
2022-08-20T06:04:56.305Z,51.58
2022-08-20T06:05:27.822Z,51.29
2022-08-20T06:05:59.139Z,51.68
2022-08-20T06:06:39.163Z,51.51
2022-08-20T06:07:17.825Z,51.29
2022-08-20T06:07:49.261Z,50.96
2022-08-20T06:08:20.657Z,51.39
2022-08-20T06:08:52.030Z,51.14
2022-08-20T06:09:30.906Z,51.21
2022-08-20T06:10:03.757Z,51.23
2022-08-20T06:10:35.219Z,51.63
2022-08-20T06:11:06.685Z,51.46
2022-08-20T06:11:38.093Z,51.29
2022-08-20T06:12:09.449Z,51.19
2022-08-20T06:12:40.976Z,51.52
2022-08-20T06:13:13.997Z,51.54
2022-08-20T06:13:45.571Z,51.58
2022-08-20T06:14:17.030Z,51.48
2022-08-20T06:14:48.411Z,51.30
2022-08-20T06:15:19.901Z,51.52
2022-08-20T06:15:51.265Z,51.41
2022-08-20T06:16:22.593Z,51.66
2022-08-20T06:17:07.469Z,51.44
2022-08-20T06:17:39.347Z,51.10
2022-08-20T06:18:27.977Z,51.29
2022-08-20T06:19:02.118Z,51.38
2022-08-20T06:19:34.680Z,51.37
2022-08-20T06:20:06.983Z,51.73
2022-08-20T06:20:38.672Z,51.70
2022-08-20T06:21:10.096Z,51.34
2022-08-20T06:21:41.456Z,51.38
2022-08-20T06:22:19.562Z,51.66
2022-08-20T06:22:57.183Z,51.54
2022-08-20T06:23:56.513Z,51.35
2022-08-20T06:24:19.959Z,51.64
2022-08-20T06:24:51.485Z,51.29
2022-08-20T06:25:23.035Z,51.66
2022-08-20T06:25:54.433Z,51.36
2022-08-20T06:26:29.868Z,51.08
2022-08-20T06:27:03.034Z,51.56
2022-08-20T06:27:37.216Z,51.52
2022-08-20T06:28:08.578Z,51.07
2022-08-20T06:28:39.938Z,51.23
2022-08-20T06:29:11.294Z,51.50
2022-08-20T06:29:42.760Z,51.57
2022-08-20T06:30:14.443Z,51.55
2022-08-20T06:30:45.870Z,51.07
2022-08-20T06:31:17.188Z,51.00
2022-08-20T06:31:48.555Z,51.40
2022-08-20T06:32:31.656Z,51.53
2022-08-20T06:33:04.153Z,51.35
2022-08-20T06:33:35.544Z,51.09
2022-08-20T06:34:06.852Z,51.06
2022-08-20T06:34:38.187Z,51.19
2022-08-20T06:35:42.930Z,50.86
2022-08-20T06:36:14.232Z,51.28
2022-08-20T06:36:50.220Z,51.10
2022-08-20T06:37:22.748Z,51.20
2022-08-20T06:37:54.286Z,51.46
2022-08-20T06:38:25.597Z,51.66
2022-08-20T06:38:56.903Z,51.54
2022-08-20T06:39:28.214Z,51.39
2022-08-20T06:40:00.488Z,51.73
2022-08-20T06:40:31.817Z,51.73
2022-08-20T06:41:03.216Z,51.46
2022-08-20T06:41:37.166Z,51.76
2022-08-20T06:42:08.769Z,51.52
2022-08-20T06:42:41.640Z,51.76
2022-08-20T06:43:16.104Z,51.76
2022-08-20T06:43:47.661Z,51.62
2022-08-20T06:44:19.076Z,51.78
2022-08-20T06:44:50.572Z,51.61
2022-08-20T06:45:23.185Z,51.60
2022-08-20T06:45:54.629Z,51.78
2022-08-20T06:46:26.143Z,51.93
2022-08-20T06:47:00.295Z,51.97
2022-08-20T06:47:32.131Z,52.01
2022-08-20T06:48:08.899Z,51.56
2022-08-20T06:48:40.386Z,51.92
2022-08-20T06:49:12.341Z,51.95
2022-08-20T06:49:43.883Z,51.82
2022-08-20T06:50:19.284Z,52.05
2022-08-20T06:50:50.869Z,51.60
2022-08-20T06:51:22.390Z,52.20
2022-08-20T06:51:53.914Z,51.94
2022-08-20T06:52:45.218Z,52.09
2022-08-20T06:53:17.823Z,52.17
2022-08-20T06:53:49.280Z,52.19
2022-08-20T06:54:20.773Z,52.18
2022-08-20T06:55:00.111Z,52.10
2022-08-20T06:55:31.687Z,51.69
2022-08-20T06:56:03.389Z,52.12
2022-08-20T06:56:34.866Z,51.87
2022-08-20T06:57:06.420Z,51.94
2022-08-20T06:57:37.972Z,51.70
2022-08-20T06:58:15.628Z,51.82
2022-08-20T06:59:01.363Z,52.11
2022-08-20T06:59:32.916Z,51.88
2022-08-20T07:00:05.496Z,51.47
2022-08-20T07:00:37.437Z,51.86
2022-08-20T07:01:10.836Z,51.69
2022-08-20T07:01:42.830Z,51.46
2022-08-20T07:02:14.395Z,51.52
2022-08-20T07:02:45.892Z,51.38
2022-08-20T07:03:17.531Z,51.88
2022-08-20T07:03:55.323Z,51.61
2022-08-20T07:04:27.791Z,51.86